Time;durP1;ratioP1;P1;durP2;ratioP2;P2;SDS_P1;SDS_P2;PMS_P1;PMS_P2;Temp;Humidity;BMP_temperature;BMP_pressure;BME280_temperature;BME280_humidity;BME280_pressure;Samples;Min_cycle;Max_cycle;Signal;HPM_P1;HPM_P2
2022/07/11 00:01:30;;;;;;;4.13;1.60;;;12.70;99.90;;;;;;10071421;29;20124;-90
2022/07/11 00:06:31;;;;;;;5.90;1.90;;;12.60;99.90;;;;;;10072206;29;20064;-89
2022/07/11 00:11:32;;;;;;;4.13;2.35;;;12.60;99.90;;;;;;10071666;29;20128;-88
2022/07/11 00:16:32;;;;;;;4.93;1.90;;;12.60;99.90;;;;;;10067365;29;20044;-92
2022/07/11 00:21:35;;;;;;;5.70;2.15;;;12.60;99.90;;;;;;10068264;29;20040;-89
2022/07/11 00:26:36;;;;;;;6.45;2.08;;;12.60;99.90;;;;;;10084129;29;20189;-88
2022/07/11 00:31:37;;;;;;;3.08;1.80;;;12.60;99.90;;;;;;10070751;29;20032;-90
2022/07/11 00:36:37;;;;;;;2.92;1.60;;;12.50;99.90;;;;;;10070926;29;20040;-88
2022/07/11 00:41:38;;;;;;;7.57;2.90;;;12.50;99.90;;;;;;10087488;29;20036;-87
2022/07/11 00:46:38;;;;;;;5.18;2.15;;;12.50;99.90;;;;;;10064837;29;20047;-91
2022/07/11 00:51:39;;;;;;;5.00;2.28;;;12.50;99.90;;;;;;10066545;29;20061;-88
2022/07/11 00:56:41;;;;;;;5.47;2.65;;;12.40;99.90;;;;;;10083391;29;20029;-89
2022/07/11 01:01:41;;;;;;;6.85;2.20;;;12.40;99.90;;;;;;10069174;29;20499;-87
2022/07/11 01:06:42;;;;;;;6.25;2.63;;;12.40;99.90;;;;;;10083555;29;20048;-88
2022/07/11 01:11:42;;;;;;;4.70;2.35;;;12.50;99.90;;;;;;10086081;29;20456;-87
2022/07/11 01:16:43;;;;;;;4.43;2.22;;;12.50;99.90;;;;;;10068354;29;20033;-87
2022/07/11 01:21:49;;;;;;;4.32;2.28;;;12.60;99.90;;;;;;10067834;29;20025;-87
2022/07/11 01:26:51;;;;;;;4.97;2.35;;;12.70;99.90;;;;;;10075804;29;20135;-89
2022/07/11 01:31:53;;;;;;;3.45;2.15;;;12.80;99.90;;;;;;10077550;29;20432;-89
2022/07/11 01:36:54;;;;;;;3.97;2.15;;;12.80;99.90;;;;;;10077441;29;20036;-87
2022/07/11 01:41:56;;;;;;;3.15;1.83;;;12.80;99.90;;;;;;10076554;29;20128;-87
2022/07/11 01:46:56;;;;;;;4.60;2.15;;;12.90;99.90;;;;;;10074843;29;20442;-88
2022/07/11 01:51:57;;;;;;;8.18;2.67;;;12.90;99.90;;;;;;10076314;29;20041;-89
2022/07/11 01:56:58;;;;;;;4.10;2.00;;;12.90;99.90;;;;;;10076058;29;20112;-92
2022/07/11 02:01:59;;;;;;;6.35;1.98;;;13.00;99.90;;;;;;10091498;29;20060;-87
2022/07/11 02:06:59;;;;;;;3.63;2.00;;;13.00;99.90;;;;;;10092210;29;20049;-87
2022/07/11 02:12:00;;;;;;;5.18;2.50;;;13.00;99.90;;;;;;10075274;29;20048;-87
2022/07/11 02:17:00;;;;;;;5.93;2.30;;;12.90;99.90;;;;;;10076399;29;20067;-87
2022/07/11 02:22:05;;;;;;;7.72;2.50;;;13.00;99.90;;;;;;10091331;29;20458;-88
2022/07/11 02:27:06;;;;;;;5.83;1.97;;;12.90;99.90;;;;;;10092292;29;20089;-91
2022/07/11 02:32:07;;;;;;;4.13;1.83;;;13.00;99.90;;;;;;10072978;29;20483;-87
2022/07/11 02:37:07;;;;;;;4.63;2.00;;;13.00;99.90;;;;;;10072105;29;20635;-88
2022/07/11 02:42:08;;;;;;;6.93;2.35;;;13.00;99.90;;;;;;10074408;29;20056;-88
2022/07/11 02:47:09;;;;;;;9.13;2.53;;;13.00;99.90;;;;;;10090428;29;20405;-90
2022/07/11 02:52:10;;;;;;;5.15;2.13;;;13.00;99.90;;;;;;10074468;29;20477;-89
2022/07/11 02:57:11;;;;;;;4.25;2.25;;;13.00;99.90;;;;;;10070780;29;20049;-87
2022/07/11 03:02:11;;;;;;;3.75;1.98;;;13.00;99.90;;;;;;10087396;29;20052;-86
2022/07/11 03:07:12;;;;;;;4.75;2.08;;;13.00;99.90;;;;;;10089581;29;20048;-92
2022/07/11 03:12:16;;;;;;;5.95;2.33;;;13.00;99.90;;;;;;10073752;29;20033;-91
2022/07/11 03:17:18;;;;;;;7.95;2.28;;;13.00;99.90;;;;;;10091777;29;20036;-89
2022/07/11 03:22:19;;;;;;;5.47;2.42;;;12.90;99.90;;;;;;10073350;29;20071;-89
2022/07/11 03:27:20;;;;;;;3.85;1.95;;;12.90;99.90;;;;;;10074074;29;20128;-93
2022/07/11 03:32:22;;;;;;;2.95;2.03;;;12.90;99.90;;;;;;10077162;29;20032;-90
2022/07/11 03:37:22;;;;;;;4.57;2.60;;;13.00;99.90;;;;;;10078890;29;20033;-87
2022/07/11 03:42:26;;;;;;;7.57;2.95;;;13.00;99.90;;;;;;10081028;29;20450;-90
2022/07/11 03:47:30;;;;;;;6.53;2.60;;;13.00;99.90;;;;;;10073008;29;20049;-93
2022/07/11 03:52:32;;;;;;;3.75;2.30;;;13.00;99.90;;;;;;10069009;29;20029;-89
2022/07/11 03:57:33;;;;;;;8.35;2.92;;;13.00;99.90;;;;;;10067009;29;20048;-90
2022/07/11 04:02:35;;;;;;;6.18;2.85;;;13.00;99.90;;;;;;10074529;29;20124;-90
2022/07/11 04:07:35;;;;;;;5.25;2.85;;;13.00;99.90;;;;;;10072298;29;20053;-89
2022/07/11 04:12:36;;;;;;;6.38;2.78;;;13.10;99.90;;;;;;10083132;29;20117;-90
2022/07/11 04:17:37;;;;;;;5.20;2.78;;;13.20;99.90;;;;;;10072128;29;20037;-90
2022/07/11 04:22:38;;;;;;;3.60;2.30;;;13.30;99.90;;;;;;10067765;29;20438;-88
2022/07/11 04:27:39;;;;;;;9.05;3.15;;;13.40;99.90;;;;;;10069274;29;20049;-88
2022/07/11 04:32:39;;;;;;;7.15;2.30;;;13.50;99.90;;;;;;10087465;29;20025;-88
2022/07/11 04:37:40;;;;;;;5.40;2.50;;;13.60;99.90;;;;;;10068886;29;20061;-88
2022/07/11 04:42:40;;;;;;;4.53;2.30;;;13.70;99.90;;;;;;10067099;29;20499;-87
2022/07/11 04:47:41;;;;;;;3.95;2.05;;;13.80;99.90;;;;;;10070534;29;20041;-88
2022/07/11 04:52:42;;;;;;;5.72;1.98;;;14.00;99.90;;;;;;10070583;29;20053;-87
2022/07/11 04:57:43;;;;;;;7.22;3.00;;;14.10;99.90;;;;;;10068115;29;20017;-87
2022/07/11 05:02:43;;;;;;;5.38;2.00;;;14.30;99.90;;;;;;10075604;29;20564;-85
2022/07/11 05:07:50;;;;;;;5.90;2.05;;;14.50;99.90;;;;;;10066750;29;20041;-94
2022/07/11 05:12:51;;;;;;;5.28;2.53;;;14.60;99.90;;;;;;10054500;29;20033;-91
2022/07/11 05:23:48;;;;;;;4.25;1.88;;;14.90;99.90;;;;;;10083135;29;20037;-87
2022/07/11 05:28:48;;;;;;;6.50;2.55;;;15.00;99.90;;;;;;10061721;29;20045;-85
2022/07/11 05:33:49;;;;;;;7.05;2.30;;;15.10;99.90;;;;;;10057662;29;20041;-88
2022/07/11 05:38:50;;;;;;;4.03;2.10;;;15.10;99.90;;;;;;10064908;29;20033;-86
2022/07/11 05:43:50;;;;;;;9.02;2.20;;;15.20;99.90;;;;;;10084340;29;20565;-87
2022/07/11 05:48:51;;;;;;;4.72;2.10;;;15.20;99.90;;;;;;10077151;29;20124;-85
2022/07/11 05:53:51;;;;;;;7.18;2.85;;;15.30;99.90;;;;;;10065594;29;20033;-85
2022/07/11 05:58:52;;;;;;;6.78;2.47;;;15.40;99.90;;;;;;10058414;29;20085;-85
2022/07/11 06:03:52;;;;;;;5.75;2.50;;;15.40;99.90;;;;;;10068665;29;20131;-86
2022/07/11 06:08:53;;;;;;;10.80;3.30;;;15.30;99.90;;;;;;10071695;29;20055;-85
2022/07/11 06:13:54;;;;;;;9.93;3.72;;;15.30;99.90;;;;;;10077359;29;20515;-89
2022/07/11 06:18:54;;;;;;;8.68;2.97;;;15.40;99.90;;;;;;10080656;29;20033;-83
2022/07/11 06:23:55;;;;;;;6.10;2.88;;;15.40;99.90;;;;;;10079961;29;20113;-83
2022/07/11 06:28:57;;;;;;;10.05;2.60;;;15.50;99.90;;;;;;10060795;29;20628;-84
2022/07/11 06:33:57;;;;;;;5.47;1.92;;;15.70;99.90;;;;;;10057471;29;20055;-84
2022/07/11 06:38:58;;;;;;;7.65;2.97;;;15.80;99.90;;;;;;10069907;29;20037;-83
2022/07/11 06:43:59;;;;;;;10.05;2.63;;;15.90;99.90;;;;;;10089043;29;20045;-89
2022/07/11 06:48:59;;;;;;;7.10;2.00;;;16.10;99.90;;;;;;10079457;29;20053;-83
2022/07/11 06:54:00;;;;;;;7.95;2.15;;;16.30;99.90;;;;;;10072175;29;20113;-83
2022/07/11 06:59:01;;;;;;;6.07;1.85;;;17.10;99.90;;;;;;10072015;29;20037;-87
2022/07/11 07:04:01;;;;;;;5.13;1.70;;;18.60;99.90;;;;;;10088247;29;20707;-85
2022/07/11 07:09:03;;;;;;;4.75;1.60;;;19.90;94.50;;;;;;10088601;29;20120;-88
2022/07/11 07:14:03;;;;;;;5.50;1.80;;;21.00;90.10;;;;;;10078847;29;20025;-84
2022/07/11 07:19:04;;;;;;;5.68;1.85;;;21.60;85.30;;;;;;10088916;29;20390;-84
2022/07/11 07:24:05;;;;;;;6.90;1.80;;;21.30;81.10;;;;;;10088206;29;20043;-86
2022/07/11 07:29:06;;;;;;;5.85;1.38;;;21.60;80.00;;;;;;10073126;29;20051;-84
2022/07/11 07:34:08;;;;;;;4.22;1.58;;;21.00;76.40;;;;;;10090840;29;20044;-86
2022/07/11 07:39:08;;;;;;;5.63;1.17;;;19.90;80.10;;;;;;10089902;29;20060;-83
2022/07/11 07:44:09;;;;;;;5.38;1.15;;;20.10;81.20;;;;;;10083781;29;20128;-84
2022/07/11 07:49:10;;;;;;;5.00;1.20;;;20.20;79.00;;;;;;10071344;29;20037;-86
2022/07/11 07:54:13;;;;;;;5.20;1.35;;;19.30;80.50;;;;;;10089912;29;20116;-87
2022/07/11 07:59:13;;;;;;;8.88;1.80;;;18.90;81.50;;;;;;10072278;29;20131;-83
2022/07/11 08:04:14;;;;;;;6.35;1.23;;;18.60;81.20;;;;;;10089772;29;20205;-84
2022/07/11 08:09:15;;;;;;;4.55;1.52;;;18.10;83.20;;;;;;10087412;29;20047;-87
2022/07/11 08:14:15;;;;;;;5.75;1.27;;;17.80;83.40;;;;;;10087789;29;20127;-85
2022/07/11 08:19:16;;;;;;;4.63;1.10;;;18.40;83.60;;;;;;10088574;29;20040;-83
2022/07/11 08:24:17;;;;;;;4.50;1.50;;;18.40;83.30;;;;;;10085692;29;20029;-83
2022/07/11 08:29:17;;;;;;;2.60;1.02;;;19.20;80.90;;;;;;10088756;29;20072;-85
2022/07/11 08:34:18;;;;;;;4.85;0.82;;;19.80;78.00;;;;;;10071136;29;20021;-81
2022/07/11 08:39:18;;;;;;;4.20;1.17;;;20.10;77.90;;;;;;10084475;29;20039;-84
2022/07/11 08:44:19;;;;;;;5.15;1.92;;;20.60;76.80;;;;;;10087394;29;20040;-86
2022/07/11 08:49:20;;;;;;;6.05;1.52;;;19.90;75.40;;;;;;10087324;29;20037;-85
2022/07/11 08:54:21;;;;;;;3.33;1.02;;;19.20;78.30;;;;;;10087553;29;20033;-82
2022/07/11 08:59:24;;;;;;;6.72;3.30;;;18.60;78.60;;;;;;10087106;29;20029;-82
2022/07/11 09:04:25;;;;;;;4.28;1.80;;;18.30;80.90;;;;;;10085948;29;20668;-84
2022/07/11 09:09:27;;;;;;;9.30;3.20;;;18.20;80.30;;;;;;10066241;29;20037;-86
2022/07/11 09:14:32;;;;;;;2.42;1.45;;;17.90;80.80;;;;;;10069679;29;20085;-85
2022/07/11 09:19:37;;;;;;;3.42;0.90;;;17.50;83.20;;;;;;10068929;29;20124;-85
2022/07/11 09:30:16;;;;;;;2.90;1.08;;;18.70;88.20;;;;;;10086623;29;20120;-84
2022/07/11 09:35:17;;;;;;;11.32;4.10;;;19.00;85.20;;;;;;10086119;29;20029;-82
2022/07/11 09:40:18;;;;;;;2.88;1.17;;;19.50;83.50;;;;;;10085998;29;20036;-84
2022/07/11 09:45:20;;;;;;;6.55;1.10;;;20.40;78.20;;;;;;10087012;29;20071;-87
2022/07/11 09:50:30;;;;;;;2.53;1.05;;;21.10;75.80;;;;;;10074162;29;20021;-87
2022/07/11 09:55:37;;;;;;;1.20;0.75;;;20.30;80.40;;;;;;10090494;29;20020;-85
2022/07/11 10:00:38;;;;;;;3.25;1.15;;;18.00;88.00;;;;;;10089824;29;20053;-85
2022/07/11 10:05:39;;;;;;;2.67;1.00;;;17.00;91.60;;;;;;10077772;29;20069;-84
2022/07/11 10:10:40;;;;;;;5.03;1.40;;;16.30;91.90;;;;;;10091056;29;20128;-86
2022/07/11 10:15:44;;;;;;;2.95;0.98;;;15.20;95.00;;;;;;10092682;29;20116;-86
2022/07/11 10:21:07;;;;;;;6.65;2.10;;;14.30;99.90;;;;;;10093547;29;20739;-87
2022/07/11 10:26:14;;;;;;;5.70;1.88;;;13.40;99.90;;;;;;10083677;29;20041;-86
2022/07/11 10:31:19;;;;;;;14.10;4.55;;;13.20;99.90;;;;;;10090867;29;20033;-88
2022/07/11 10:36:27;;;;;;;2.95;1.30;;;13.40;99.90;;;;;;10079138;29;20501;-86
2022/07/11 10:41:28;;;;;;;1.35;1.10;;;13.90;99.90;;;;;;10078390;29;20404;-89
2022/07/11 10:46:29;;;;;;;4.07;1.17;;;14.80;99.90;;;;;;10080214;29;20033;-87
2022/07/11 10:51:49;;;;;;;2.45;1.00;;;15.30;99.90;;;;;;10076173;29;20084;-89
2022/07/11 10:57:14;;;;;;;1.40;1.00;;;15.60;99.90;;;;;;10087939;29;20033;-87
2022/07/11 11:02:15;;;;;;;2.05;1.15;;;15.70;99.90;;;;;;10092154;29;20121;-85
2022/07/11 11:07:31;;;;;;;3.58;0.80;;;15.90;99.90;;;;;;10074893;29;20478;-86
2022/07/11 11:13:07;;;;;;;1.25;0.70;;;16.20;99.90;;;;;;10085869;29;20061;-87
2022/07/11 11:18:23;;;;;;;1.38;1.27;;;16.60;99.90;;;;;;10087071;29;20037;-85
2022/07/11 11:23:25;;;;;;;1.50;0.65;;;17.10;99.90;;;;;;10080539;29;20048;-85
2022/07/11 11:28:26;;;;;;;1.77;0.60;;;17.50;99.90;;;;;;10088418;29;20064;-89
2022/07/11 11:33:30;;;;;;;1.95;0.75;;;17.50;99.90;;;;;;10075038;29;20124;-89
2022/07/11 11:38:37;;;;;;;0.90;0.60;;;17.30;99.90;;;;;;10075168;29;20025;-88
2022/07/11 11:43:38;;;;;;;2.50;0.90;;;17.20;99.90;;;;;;10074254;29;20036;-84
2022/07/11 11:48:45;;;;;;;2.05;0.85;;;17.00;99.90;;;;;;10068974;29;20034;-86
2022/07/11 11:53:49;;;;;;;1.88;0.93;;;16.70;99.90;;;;;;10069540;29;20025;-87
2022/07/11 11:58:51;;;;;;;1.35;0.70;;;16.40;99.90;;;;;;10087075;29;20029;-88
2022/07/11 12:03:57;;;;;;;0.95;0.50;;;16.40;99.90;;;;;;10071787;29;20072;-87
2022/07/11 12:09:18;;;;;;;2.30;1.17;;;16.30;99.90;;;;;;10070048;29;20068;-87
2022/07/11 12:14:20;;;;;;;1.27;0.80;;;16.10;99.90;;;;;;10085940;29;20737;-84
2022/07/11 12:19:23;;;;;;;3.35;1.02;;;15.80;99.90;;;;;;10082791;29;20029;-84
2022/07/11 12:24:27;;;;;;;3.85;1.33;;;15.40;99.90;;;;;;10079079;29;20416;-87
2022/07/11 12:29:28;;;;;;;3.28;1.10;;;15.30;99.90;;;;;;10068453;29;20040;-84
2022/07/11 12:34:33;;;;;;;2.28;1.20;;;15.50;99.90;;;;;;10084824;29;20036;-83
2022/07/11 12:39:38;;;;;;;1.50;0.80;;;16.00;99.90;;;;;;10083310;29;20037;-83
2022/07/11 12:49:58;;;;;;;1.25;0.60;;;17.70;99.90;;;;;;10084842;29;20049;-86
2022/07/11 12:55:02;;;;;;;1.95;0.70;;;18.30;99.90;;;;;;10068278;29;20029;-84
2022/07/11 13:00:16;;;;;;;1.92;0.90;;;18.80;99.90;;;;;;10068971;29;20057;-84
2022/07/11 13:05:17;;;;;;;3.13;2.00;;;19.40;99.90;;;;;;10087102;29;20207;-85
2022/07/11 13:10:23;;;;;;;4.05;2.58;;;19.60;99.90;;;;;;10080314;29;20048;-83
2022/07/11 13:15:24;;;;;;;2.25;1.25;;;19.70;99.90;;;;;;10084226;29;20161;-83
2022/07/11 13:20:28;;;;;;;160.38;69.22;;;19.90;99.90;;;;;;10090062;29;20168;-84
2022/07/11 13:25:29;;;;;;;42.47;16.38;;;20.00;99.90;;;;;;10082592;29;20040;-84
2022/07/11 13:30:30;;;;;;;100.43;43.15;;;20.20;99.90;;;;;;10082451;29;20039;-87
2022/07/11 13:35:31;;;;;;;99.25;42.92;;;20.20;99.90;;;;;;10082534;29;20041;-86
2022/07/11 13:40:33;;;;;;;1.92;1.08;;;19.80;99.90;;;;;;10081971;29;20049;-84
2022/07/11 13:45:34;;;;;;;57.83;18.30;;;19.00;99.90;;;;;;10099203;29;20033;-82
2022/07/11 13:50:35;;;;;;;79.82;30.52;;;18.50;99.90;;;;;;10081859;29;20066;-86
2022/07/11 13:55:35;;;;;;;66.78;26.20;;;17.90;99.90;;;;;;10095811;29;20165;-85
2022/07/11 14:00:36;;;;;;;61.70;24.38;;;17.40;99.90;;;;;;10097139;29;20545;-85
2022/07/11 14:05:37;;;;;;;0.75;0.40;;;17.10;99.90;;;;;;10098930;29;20449;-90
2022/07/11 14:10:39;;;;;;;0.35;0.20;;;16.80;99.90;;;;;;10081213;29;20056;-85
2022/07/11 14:15:41;;;;;;;1.30;0.40;;;15.10;99.90;;;;;;10098646;29;20025;-85
2022/07/11 14:20:41;;;;;;;3.47;0.57;;;13.70;99.90;;;;;;10079982;29;20062;-85
2022/07/11 14:25:42;;;;;;;2.05;0.75;;;12.70;99.90;;;;;;10096402;29;20187;-90
2022/07/11 14:30:43;;;;;;;1.63;0.95;;;12.40;99.90;;;;;;10078971;29;20033;-90
2022/07/11 14:35:44;;;;;;;1.20;0.85;;;12.60;99.90;;;;;;10091495;29;20702;-87
2022/07/11 14:40:45;;;;;;;4.50;1.33;;;13.00;99.90;;;;;;10085992;29;20029;-90
2022/07/11 14:45:45;;;;;;;4.13;1.45;;;13.50;99.90;;;;;;10087532;29;20042;-86
2022/07/11 14:50:46;;;;;;;5.50;1.77;;;14.10;99.90;;;;;;10073030;29;20473;-86
2022/07/11 14:55:47;;;;;;;2.97;0.90;;;14.80;99.90;;;;;;10068801;29;20033;-87
2022/07/11 15:00:48;;;;;;;4.10;1.45;;;15.20;99.90;;;;;;10074105;29;20053;-87
2022/07/11 15:05:50;;;;;;;1.27;1.15;;;15.30;99.90;;;;;;10074312;29;20045;-91
2022/07/11 15:16:10;;;;;;;1.98;1.17;;;15.30;99.90;;;;;;10090538;29;20049;-88
2022/07/11 15:21:11;;;;;;;3.75;1.50;;;15.50;99.90;;;;;;10072887;29;20422;-86
2022/07/11 15:26:11;;;;;;;3.70;1.02;;;15.50;99.90;;;;;;10072577;29;20045;-85
2022/07/11 15:31:13;;;;;;;2.63;1.17;;;15.50;99.90;;;;;;10061732;29;20044;-87
2022/07/11 15:36:16;;;;;;;2.72;1.58;;;15.30;99.90;;;;;;10072060;29;20065;-89
2022/07/11 15:41:17;;;;;;;4.68;1.80;;;15.10;99.90;;;;;;10076582;29;20738;-89
2022/07/11 15:46:18;;;;;;;3.13;1.73;;;15.10;99.90;;;;;;10072970;29;20041;-90
2022/07/11 15:51:19;;;;;;;3.10;1.70;;;15.00;99.90;;;;;;10072583;29;20036;-89
2022/07/11 15:56:20;;;;;;;3.90;1.35;;;14.80;99.90;;;;;;10071177;29;20511;-88
2022/07/11 16:01:21;;;;;;;5.95;2.70;;;14.60;99.90;;;;;;10069402;29;20049;-91
2022/07/11 16:06:22;;;;;;;4.95;3.33;;;14.40;99.90;;;;;;10070374;29;20674;-88
2022/07/11 16:11:23;;;;;;;4.13;2.58;;;14.50;99.90;;;;;;10069656;29;20036;-86
2022/07/11 16:16:24;;;;;;;6.78;2.72;;;14.70;99.90;;;;;;10072813;29;20045;-87
2022/07/11 16:21:28;;;;;;;8.07;3.35;;;14.90;99.90;;;;;;10064703;29;20021;-88
2022/07/11 16:26:29;;;;;;;3.85;1.98;;;15.30;99.90;;;;;;10076424;29;20078;-89
2022/07/11 16:31:30;;;;;;;5.78;2.13;;;15.40;99.90;;;;;;10068352;29;20040;-91
2022/07/11 16:36:31;;;;;;;3.25;1.75;;;15.40;99.90;;;;;;10081116;29;20029;-91
2022/07/11 16:46:50;;;;;;;2.10;1.13;;;15.10;99.90;;;;;;10081059;29;20219;-91
2022/07/11 16:51:52;;;;;;;2.55;1.38;;;15.20;99.90;;;;;;10067040;29;20077;-89
2022/07/11 16:56:53;;;;;;;1.55;1.30;;;15.30;99.90;;;;;;10070807;29;20025;-87
2022/07/11 17:13:10;;;;;;;2.05;1.17;;;15.70;99.90;;;;;;10078271;29;20045;-87
2022/07/11 17:18:40;;;;;;;3.35;0.73;;;15.70;99.90;;;;;;10079337;29;20068;-89
2022/07/11 17:23:57;;;;;;;1.70;0.47;;;14.70;99.90;;;;;;10056998;29;20044;-93
2022/07/11 17:29:09;;;;;;;2.97;1.90;;;13.60;99.90;;;;;;10073179;29;20053;-88
2022/07/11 17:34:32;;;;;;;0.80;0.70;;;13.10;99.90;;;;;;10238835;23;20408;-91
2022/07/11 17:39:49;;;;;;;5.15;1.05;;;12.60;99.90;;;;;;10098820;29;20044;-89
2022/07/11 17:44:51;;;;;;;3.15;1.92;;;12.30;99.90;;;;;;10104274;29;20033;-89
2022/07/11 17:49:53;;;;;;;5.95;2.40;;;12.20;99.90;;;;;;10104852;29;20029;-91
2022/07/11 17:54:56;;;;;;;6.47;2.00;;;12.10;99.90;;;;;;10104637;29;20032;-88
2022/07/11 17:59:57;;;;;;;4.20;1.63;;;12.00;99.90;;;;;;10120286;29;20047;-84
2022/07/11 18:04:58;;;;;;;6.05;2.05;;;12.00;99.90;;;;;;10103102;29;20550;-87
2022/07/11 18:09:58;;;;;;;6.82;3.55;;;12.00;99.90;;;;;;10112360;29;20412;-91
2022/07/11 18:14:59;;;;;;;5.22;3.17;;;12.10;99.90;;;;;;10083792;29;20512;-84
2022/07/11 18:20:03;;;;;;;5.05;2.97;;;12.20;99.90;;;;;;10119560;29;20693;-88
2022/07/11 18:25:05;;;;;;;8.48;3.95;;;12.20;99.90;;;;;;10112426;29;20033;-88
2022/07/11 18:30:11;;;;;;;10.13;4.80;;;12.30;99.90;;;;;;10108980;29;20074;-86
2022/07/11 18:35:12;;;;;;;11.02;6.35;;;12.30;99.90;;;;;;10118495;29;20604;-89
2022/07/11 18:45:34;;;;;;;6.13;2.13;;;12.30;99.90;;;;;;10125767;29;20505;-91
2022/07/11 18:50:42;;;;;;;2.42;1.70;;;12.30;99.90;;;;;;10115077;29;20021;-92
2022/07/11 18:55:57;;;;;;;5.43;2.80;;;12.40;99.90;;;;;;10110255;29;20124;-93
2022/07/11 19:00:57;;;;;;;5.30;2.92;;;12.40;99.90;;;;;;10106923;29;20460;-91
2022/07/11 19:12:23;;;;;;;5.32;1.95;;;12.40;99.90;;;;;;10121541;29;20053;-92
2022/07/11 19:23:10;;;;;;;4.55;1.73;;;12.40;99.90;;;;;;10125227;29;20138;-94
2022/07/11 19:28:11;;;;;;;4.05;1.73;;;12.40;99.90;;;;;;10112070;29;20048;-89
2022/07/11 19:33:12;;;;;;;3.72;1.50;;;12.40;99.90;;;;;;10122476;29;20053;-91
2022/07/11 19:38:13;;;;;;;4.30;1.80;;;12.40;99.90;;;;;;10100451;29;20084;-92
2022/07/11 19:43:14;;;;;;;4.13;2.40;;;12.40;99.90;;;;;;10077946;29;20041;-90
2022/07/11 19:48:16;;;;;;;4.15;1.98;;;12.30;99.90;;;;;;10075959;29;21699;-91
2022/07/11 19:53:17;;;;;;;3.85;2.35;;;12.20;99.90;;;;;;10070235;29;20045;-91
2022/07/11 19:58:18;;;;;;;6.15;3.95;;;12.20;99.90;;;;;;10068769;29;20053;-89
2022/07/11 20:03:21;;;;;;;7.82;3.70;;;12.20;99.90;;;;;;10078164;29;20588;-92
2022/07/11 20:08:22;;;;;;;5.28;3.28;;;12.10;99.90;;;;;;10078966;29;20048;-91
2022/07/11 20:13:23;;;;;;;3.85;3.10;;;12.00;99.90;;;;;;10083609;29;20040;-92
2022/07/11 20:18:25;;;;;;;6.75;4.82;;;12.00;99.90;;;;;;10104648;29;20028;-92
2022/07/11 20:23:55;;;;;;;9.65;4.47;;;12.00;99.90;;;;;;10103946;29;20088;-92
2022/07/11 20:28:56;;;;;;;7.88;5.60;;;12.00;99.90;;;;;;10097372;29;20510;-93
2022/07/11 20:46:26;;;;;;;8.85;5.15;;;12.10;99.90;;;;;;9940486;29;20047;-93
2022/07/11 20:51:27;;;;;;;13.50;7.80;;;12.00;99.90;;;;;;10096921;29;20528;-92
2022/07/11 20:57:18;;;;;;;14.13;7.53;;;12.10;99.90;;;;;;10122191;29;20032;-93
2022/07/11 21:02:22;;;;;;;12.90;6.43;;;12.00;99.90;;;;;;10121693;29;20036;-93
2022/07/11 21:14:16;;;;;;;9.63;6.30;;;12.00;99.90;;;;;;10096511;29;20044;-94
2022/07/11 21:19:22;;;;;;;9.05;6.57;;;12.10;99.90;;;;;;10013049;29;20060;-92
2022/07/11 21:24:23;;;;;;;11.82;7.28;;;12.10;99.90;;;;;;10110404;29;20131;-92
2022/07/11 21:29:24;;;;;;;15.55;9.32;;;12.00;99.90;;;;;;10122885;29;20140;-91
2022/07/11 21:34:33;;;;;;;16.23;9.02;;;12.00;99.90;;;;;;10118371;29;20124;-92
2022/07/11 21:39:41;;;;;;;10.68;6.43;;;12.00;99.90;;;;;;10127251;29;20045;-93
2022/07/11 21:45:57;;;;;;;11.50;7.28;;;12.00;99.90;;;;;;10129497;29;20485;-92
2022/07/11 21:50:58;;;;;;;7.05;4.10;;;11.90;99.90;;;;;;10081618;29;20078;-90
2022/07/11 21:56:03;;;;;;;6.10;3.97;;;11.80;99.90;;;;;;10119380;29;20159;-94
2022/07/11 22:01:03;;;;;;;7.38;3.63;;;11.80;99.90;;;;;;10119631;29;20056;-90
2022/07/11 22:06:04;;;;;;;6.18;4.22;;;11.70;99.90;;;;;;10116959;29;20049;-91
2022/07/11 22:11:05;;;;;;;6.47;4.60;;;11.60;99.90;;;;;;10115447;29;20497;-90
2022/07/11 22:16:06;;;;;;;7.65;4.38;;;11.50;99.90;;;;;;10115061;29;20036;-92
2022/07/11 22:21:07;;;;;;;5.35;4.07;;;11.50;99.90;;;;;;10116359;29;20036;-92
2022/07/11 22:26:07;;;;;;;5.45;4.30;;;11.40;99.90;;;;;;10101584;29;20516;-91
2022/07/11 22:31:08;;;;;;;7.75;4.22;;;11.40;99.90;;;;;;10089080;29;20063;-91
2022/07/11 22:36:09;;;;;;;6.72;4.32;;;11.40;99.90;;;;;;10090433;29;20090;-91
2022/07/11 22:41:09;;;;;;;9.02;3.80;;;11.50;99.90;;;;;;10085158;29;20109;-92
2022/07/11 22:46:10;;;;;;;4.72;3.58;;;11.50;99.90;;;;;;10087591;29;20047;-90
2022/07/11 22:51:11;;;;;;;5.43;3.40;;;11.70;99.90;;;;;;10082651;29;20105;-92
2022/07/11 22:56:12;;;;;;;4.32;3.30;;;11.70;99.90;;;;;;10095225;29;20483;-91
2022/07/11 23:01:12;;;;;;;5.80;3.90;;;11.90;99.90;;;;;;10112403;29;20032;-90
2022/07/11 23:06:14;;;;;;;4.90;3.00;;;11.90;99.90;;;;;;10106992;29;20052;-91
2022/07/11 23:11:15;;;;;;;6.32;3.95;;;11.90;99.90;;;;;;10116164;29;20127;-92
2022/07/11 23:16:16;;;;;;;5.95;3.70;;;12.00;99.90;;;;;;10113161;29;20036;-90
2022/07/11 23:21:20;;;;;;;3.55;2.83;;;12.10;99.90;;;;;;10113799;29;20428;-90
2022/07/11 23:26:21;;;;;;;5.95;3.47;;;12.10;99.90;;;;;;10115503;29;20040;-93
2022/07/11 23:31:48;;;;;;;5.97;4.18;;;12.20;99.90;;;;;;10113661;29;20080;-92
2022/07/11 23:48:51;;;;;;;5.22;3.88;;;12.20;99.90;;;;;;9930780;29;20054;-93
2022/07/11 23:54:32;;;;;;;;;;;;;;;;;;;;;
2022/07/11 23:59:57;;;;;;;10.75;5.25;;;12.30;99.90;;;;;;10125308;29;20041;-92
